createdAt,value
2018-12-16T00:00:58.960Z,30.94
2018-12-16T00:01:58.915Z,30.94
2018-12-16T00:02:58.860Z,30.84
2018-12-16T00:03:58.809Z,30.84
2018-12-16T00:04:58.760Z,30.94
2018-12-16T00:05:58.710Z,30.84
2018-12-16T00:06:58.660Z,30.84
2018-12-16T00:07:58.609Z,30.84
2018-12-16T00:08:58.560Z,30.84
2018-12-16T00:09:58.510Z,30.75
2018-12-16T00:10:58.461Z,30.75
2018-12-16T00:11:58.410Z,30.75
2018-12-16T00:12:58.362Z,31.04
2018-12-16T00:13:58.310Z,31.13
2018-12-16T00:14:58.260Z,31.13
2018-12-16T00:15:58.210Z,31.13
2018-12-16T00:16:58.159Z,30.84
2018-12-16T00:17:58.110Z,30.65
2018-12-16T00:18:58.061Z,30.75
2018-12-16T00:19:58.014Z,30.65
2018-12-16T00:20:57.960Z,31.04
2018-12-16T00:21:57.910Z,31.04
2018-12-16T00:22:57.862Z,30.84
2018-12-16T00:23:57.810Z,30.84
2018-12-16T00:24:57.760Z,30.65
2018-12-16T00:25:57.712Z,30.75
2018-12-16T00:26:57.661Z,30.84
2018-12-16T00:27:57.610Z,30.84
2018-12-16T00:28:57.561Z,30.94
2018-12-16T00:29:57.511Z,30.84
2018-12-16T00:30:57.461Z,30.94
2018-12-16T00:31:57.411Z,30.94
2018-12-16T00:32:57.361Z,30.94
2018-12-16T00:33:57.311Z,31.04
2018-12-16T00:34:57.260Z,31.23
2018-12-16T00:35:57.210Z,31.13
2018-12-16T00:36:57.160Z,30.84
2018-12-16T00:37:57.109Z,30.84
2018-12-16T00:38:57.067Z,30.94
2018-12-16T00:39:57.010Z,31.04
2018-12-16T00:40:56.961Z,31.04
2018-12-16T00:41:56.915Z,31.04
2018-12-16T00:42:56.863Z,30.84
2018-12-16T00:43:56.809Z,31.04
2018-12-16T00:44:56.765Z,31.04
2018-12-16T00:45:56.711Z,31.04
2018-12-16T00:46:56.662Z,31.04
2018-12-16T00:47:56.612Z,30.65
2018-12-16T00:48:56.560Z,31.13
2018-12-16T00:49:56.512Z,31.23
2018-12-16T00:50:56.461Z,31.04
2018-12-16T00:51:56.410Z,30.46
2018-12-16T00:52:56.360Z,30.65
2018-12-16T00:53:56.310Z,30.75
2018-12-16T00:54:56.260Z,30.75
2018-12-16T00:55:56.210Z,30.65
2018-12-16T00:56:56.160Z,30.84
2018-12-16T00:57:56.171Z,30.75
2018-12-16T00:58:56.060Z,30.75
2018-12-16T00:59:56.020Z,30.75
2018-12-16T01:00:55.959Z,30.75
2018-12-16T01:01:55.910Z,30.55
2018-12-16T01:02:55.861Z,30.84
2018-12-16T01:03:55.810Z,30.75
2018-12-16T01:04:55.760Z,30.75
2018-12-16T01:05:55.710Z,30.65
2018-12-16T01:06:55.660Z,30.65
2018-12-16T01:07:55.662Z,30.94
2018-12-16T01:08:55.560Z,30.46
2018-12-16T01:09:55.511Z,30.84
2018-12-16T01:10:55.509Z,30.46
2018-12-16T01:11:55.409Z,30.36
2018-12-16T01:12:55.358Z,30.36
2018-12-16T01:13:55.312Z,30.55
2018-12-16T01:14:55.259Z,30.65
2018-12-16T01:15:55.208Z,30.55
2018-12-16T01:16:55.476Z,30.75
2018-12-16T01:17:55.126Z,30.65
2018-12-16T01:18:55.064Z,30.65
2018-12-16T01:19:55.081Z,30.44
2018-12-16T01:20:54.959Z,30.65
2018-12-16T01:21:54.910Z,30.46
2018-12-16T01:22:54.860Z,30.54
2018-12-16T01:23:54.811Z,30.46
2018-12-16T01:24:54.759Z,30.46
2018-12-16T01:25:54.709Z,30.55
2018-12-16T01:26:54.658Z,30.55
2018-12-16T01:27:54.607Z,30.46
2018-12-16T01:28:54.559Z,30.46
2018-12-16T01:29:54.512Z,30.65
2018-12-16T01:30:54.458Z,30.75
2018-12-16T01:31:54.408Z,30.75
2018-12-16T01:32:54.358Z,30.84
2018-12-16T01:33:54.309Z,30.84
2018-12-16T01:34:54.261Z,31.04
2018-12-16T01:35:54.211Z,30.94
2018-12-16T01:36:54.159Z,30.46
2018-12-16T01:37:54.108Z,30.46
2018-12-16T01:38:54.059Z,30.46
2018-12-16T01:39:54.008Z,30.36
2018-12-16T01:40:53.958Z,30.46
2018-12-16T01:41:53.908Z,30.18
2018-12-16T01:42:53.858Z,30.35
2018-12-16T01:43:53.807Z,30.27
2018-12-16T01:44:53.757Z,29.98
2018-12-16T01:45:53.708Z,30.46
2018-12-16T01:46:53.657Z,30.44
2018-12-16T01:47:53.613Z,30.18
2018-12-16T01:48:53.556Z,30.36
2018-12-16T01:49:53.507Z,30.18
2018-12-16T01:50:53.456Z,30.27
2018-12-16T01:51:53.407Z,30.27
2018-12-16T01:52:53.357Z,30.27
2018-12-16T01:53:53.307Z,29.98
2018-12-16T01:54:53.257Z,30.18
2018-12-16T01:55:53.206Z,29.79
2018-12-16T01:56:53.156Z,30.27
2018-12-16T01:57:53.107Z,30.18
2018-12-16T01:58:53.057Z,30.08
2018-12-16T01:59:53.005Z,29.88
2018-12-16T02:00:52.958Z,29.88
2018-12-16T02:01:52.906Z,29.98
2018-12-16T02:02:52.856Z,29.69
2018-12-16T02:03:52.808Z,29.41
2018-12-16T02:04:52.756Z,29.60
2018-12-16T02:05:52.706Z,29.50
2018-12-16T02:06:52.656Z,29.60
2018-12-16T02:07:52.607Z,29.69
2018-12-16T02:08:52.556Z,29.41
2018-12-16T02:09:52.511Z,29.77
2018-12-16T02:10:52.456Z,29.97
2018-12-16T02:11:52.406Z,29.50
2018-12-16T02:12:52.355Z,29.69
2018-12-16T02:13:52.304Z,29.50
2018-12-16T02:14:52.256Z,29.50
2018-12-16T02:15:52.204Z,29.60
2018-12-16T02:16:52.208Z,29.69
2018-12-16T02:17:52.106Z,29.87
2018-12-16T02:18:52.054Z,29.98
2018-12-16T02:19:52.005Z,29.79
2018-12-16T02:20:51.954Z,29.98
2018-12-16T02:21:51.906Z,29.87
2018-12-16T02:22:56.878Z,29.98
2018-12-16T02:23:51.804Z,29.68
2018-12-16T02:24:51.757Z,29.97
2018-12-16T02:25:51.704Z,29.88
2018-12-16T02:26:51.705Z,29.87
2018-12-16T02:27:51.604Z,29.77
2018-12-16T02:28:51.554Z,29.58
2018-12-16T02:29:51.504Z,29.69
2018-12-16T02:30:51.455Z,29.68
2018-12-16T02:31:51.406Z,29.77
2018-12-16T02:32:51.354Z,29.69
2018-12-16T02:33:51.304Z,29.68
2018-12-16T02:34:51.255Z,29.60
2018-12-16T02:35:51.202Z,29.69
2018-12-16T02:36:51.153Z,29.79
2018-12-16T02:37:51.104Z,29.79
2018-12-16T02:38:51.053Z,29.79
2018-12-16T02:39:51.319Z,29.60
2018-12-16T02:40:51.272Z,29.60
2018-12-16T02:41:50.902Z,29.98
2018-12-16T02:42:50.853Z,29.60
2018-12-16T02:43:50.802Z,29.88
2018-12-16T02:44:50.752Z,29.41
2018-12-16T02:45:50.703Z,29.41
2018-12-16T02:46:50.655Z,29.31
2018-12-16T02:47:50.602Z,29.31
2018-12-16T02:48:50.552Z,29.41
2018-12-16T02:49:50.501Z,29.69
2018-12-16T02:50:50.451Z,29.50
2018-12-16T02:51:50.402Z,29.41
2018-12-16T02:52:50.357Z,29.41
2018-12-16T02:53:50.303Z,29.39
2018-12-16T02:54:50.253Z,29.88
2018-12-16T02:55:50.201Z,29.79
2018-12-16T02:56:50.157Z,29.98
2018-12-16T02:57:50.103Z,29.50
2018-12-16T02:58:50.057Z,29.60
2018-12-16T02:59:50.001Z,29.50
2018-12-16T03:00:49.952Z,29.41
2018-12-16T03:01:49.904Z,29.31
2018-12-16T03:02:49.852Z,29.41
2018-12-16T03:03:49.849Z,29.41
2018-12-16T03:04:49.753Z,29.31
2018-12-16T03:05:49.702Z,29.31
2018-12-16T03:06:49.651Z,29.22
2018-12-16T03:07:49.600Z,29.31
2018-12-16T03:08:49.551Z,29.31
2018-12-16T03:09:49.503Z,29.12
2018-12-16T03:10:49.451Z,29.22
2018-12-16T03:11:49.403Z,29.31
2018-12-16T03:12:49.353Z,29.22
2018-12-16T03:13:49.302Z,29.22
2018-12-16T03:14:49.251Z,29.12
2018-12-16T03:15:49.200Z,28.92
2018-12-16T03:16:49.154Z,28.83
2018-12-16T03:17:49.100Z,28.83
2018-12-16T03:18:49.051Z,28.74
2018-12-16T03:19:49.000Z,28.83
2018-12-16T03:20:49.001Z,28.64
2018-12-16T03:21:48.901Z,28.83
2018-12-16T03:22:48.852Z,28.83
2018-12-16T03:23:48.798Z,28.92
2018-12-16T03:24:48.749Z,28.74
2018-12-16T03:25:48.751Z,28.81
2018-12-16T03:26:48.650Z,28.83
2018-12-16T03:27:48.599Z,28.92
2018-12-16T03:28:48.549Z,28.35
2018-12-16T03:29:48.500Z,28.35
2018-12-16T03:30:48.451Z,28.45
2018-12-16T03:31:48.399Z,28.34
2018-12-16T03:32:48.351Z,28.55
2018-12-16T03:33:48.300Z,28.55
2018-12-16T03:34:48.251Z,28.55
2018-12-16T03:35:48.205Z,28.64
2018-12-16T03:36:48.150Z,28.55
2018-12-16T03:37:48.100Z,28.55
2018-12-16T03:38:48.050Z,28.55
2018-12-16T03:39:47.998Z,28.64
2018-12-16T03:40:47.948Z,28.45
2018-12-16T03:41:47.899Z,28.55
2018-12-16T03:42:47.850Z,28.55
2018-12-16T03:43:47.799Z,28.64
2018-12-16T03:44:47.751Z,28.64
2018-12-16T03:45:47.700Z,28.55
2018-12-16T03:46:47.650Z,28.45
2018-12-16T03:47:47.605Z,28.55
2018-12-16T03:48:47.547Z,28.45
2018-12-16T03:49:47.499Z,28.45
2018-12-16T03:50:47.449Z,28.45
2018-12-16T03:51:47.397Z,28.92
2018-12-16T03:52:47.348Z,28.83
2018-12-16T03:53:47.299Z,28.74
2018-12-16T03:54:47.249Z,28.45
2018-12-16T03:55:47.198Z,28.35
2018-12-16T03:56:47.152Z,28.45
2018-12-16T03:57:47.097Z,28.45
2018-12-16T03:58:47.049Z,28.92
2018-12-16T03:59:47.048Z,28.92
2018-12-16T04:00:46.948Z,28.74
2018-12-16T04:01:46.898Z,28.83
2018-12-16T04:02:46.848Z,28.74
2018-12-16T04:03:46.798Z,28.83
2018-12-16T04:04:46.748Z,28.83
2018-12-16T04:05:46.697Z,28.83
2018-12-16T04:06:46.649Z,28.74
2018-12-16T04:07:46.598Z,28.74
2018-12-16T04:08:46.553Z,28.74
2018-12-16T04:09:46.497Z,28.74
2018-12-16T04:10:46.448Z,28.83
2018-12-16T04:11:46.398Z,28.74
2018-12-16T04:12:46.348Z,28.74
2018-12-16T04:13:46.298Z,28.74
2018-12-16T04:14:46.248Z,28.83
2018-12-16T04:15:46.197Z,28.83
2018-12-16T04:16:46.146Z,28.83
2018-12-16T04:17:46.098Z,28.83
2018-12-16T04:18:46.051Z,28.83
2018-12-16T04:19:45.997Z,28.83
2018-12-16T04:20:45.947Z,28.83
2018-12-16T04:21:45.905Z,28.74
2018-12-16T04:22:45.848Z,28.74
2018-12-16T04:23:45.797Z,28.74
2018-12-16T04:24:45.747Z,28.83
2018-12-16T04:25:45.697Z,28.74
2018-12-16T04:26:45.649Z,28.64
2018-12-16T04:27:45.598Z,28.74
2018-12-16T04:28:45.547Z,28.92
2018-12-16T04:29:45.497Z,28.92
2018-12-16T04:30:45.451Z,28.92
2018-12-16T04:31:45.401Z,29.02
2018-12-16T04:32:45.347Z,29.12
2018-12-16T04:33:45.297Z,28.83
2018-12-16T04:34:45.261Z,28.74
2018-12-16T04:35:45.195Z,28.74
2018-12-16T04:36:45.149Z,28.64
2018-12-16T04:37:45.148Z,29.02
2018-12-16T04:38:45.047Z,28.92
2018-12-16T04:39:44.995Z,28.92
2018-12-16T04:40:44.947Z,28.92
2018-12-16T04:41:44.899Z,29.12
2018-12-16T04:42:44.846Z,28.92
2018-12-16T04:43:44.796Z,28.92
2018-12-16T04:44:44.747Z,28.92
2018-12-16T04:45:44.696Z,29.12
2018-12-16T04:46:44.647Z,29.22
2018-12-16T04:47:44.597Z,29.11
2018-12-16T04:48:44.546Z,29.22
2018-12-16T04:49:44.497Z,29.22
2018-12-16T04:50:44.448Z,29.12
2018-12-16T04:51:44.396Z,29.31
2018-12-16T04:52:44.346Z,29.22
2018-12-16T04:53:44.296Z,29.22
2018-12-16T04:54:44.248Z,29.12
2018-12-16T04:55:44.194Z,29.31
2018-12-16T04:56:44.145Z,29.22
2018-12-16T04:57:44.096Z,29.31
2018-12-16T04:58:44.046Z,29.12
2018-12-16T04:59:43.995Z,29.31
2018-12-16T05:00:43.951Z,29.31
2018-12-16T05:01:43.896Z,29.22
2018-12-16T05:02:43.846Z,29.22
2018-12-16T05:03:43.795Z,29.22
2018-12-16T05:04:43.749Z,29.11
2018-12-16T05:05:43.695Z,29.22
2018-12-16T05:06:43.646Z,29.22
2018-12-16T05:07:43.596Z,29.12
2018-12-16T05:08:43.545Z,29.22
2018-12-16T05:09:43.496Z,29.22
2018-12-16T05:10:43.497Z,29.22
2018-12-16T05:11:43.416Z,29.12
2018-12-16T05:12:43.349Z,28.92
2018-12-16T05:13:43.295Z,29.22
2018-12-16T05:14:43.246Z,29.12
2018-12-16T05:15:43.194Z,29.22
2018-12-16T05:16:43.148Z,29.22
2018-12-16T05:17:43.096Z,29.41
2018-12-16T05:18:43.100Z,28.92
2018-12-16T05:19:42.995Z,29.22
2018-12-16T05:20:42.945Z,29.22
2018-12-16T05:21:42.896Z,29.31
2018-12-16T05:22:42.848Z,29.22
2018-12-16T05:23:42.796Z,29.22
2018-12-16T05:24:42.795Z,29.12
2018-12-16T05:25:42.695Z,29.12
2018-12-16T05:26:42.644Z,29.31
2018-12-16T05:27:42.594Z,29.12
2018-12-16T05:28:42.544Z,29.22
2018-12-16T05:29:42.494Z,28.92
2018-12-16T05:30:42.445Z,29.22
2018-12-16T05:31:42.394Z,29.31
2018-12-16T05:32:42.349Z,29.12
2018-12-16T05:33:42.293Z,29.22
2018-12-16T05:34:42.245Z,29.31
2018-12-16T05:35:42.194Z,29.22
2018-12-16T05:36:42.143Z,29.22
2018-12-16T05:37:42.098Z,29.22
2018-12-16T05:38:42.044Z,29.12
2018-12-16T05:39:41.994Z,29.02
2018-12-16T05:40:41.946Z,28.92
2018-12-16T05:41:41.893Z,29.22
2018-12-16T05:42:41.896Z,29.22
2018-12-16T05:43:41.793Z,29.22
2018-12-16T05:44:41.744Z,29.22
2018-12-16T05:45:41.692Z,29.31
2018-12-16T05:46:41.643Z,29.22
2018-12-16T05:47:41.593Z,29.22
2018-12-16T05:48:41.543Z,29.12
2018-12-16T05:49:41.492Z,28.92
2018-12-16T05:50:41.443Z,29.22
2018-12-16T05:51:41.392Z,29.02
2018-12-16T05:52:41.342Z,28.74
2018-12-16T05:53:41.291Z,28.92
2018-12-16T05:54:41.243Z,28.74
2018-12-16T05:55:41.192Z,28.83
2018-12-16T05:56:41.142Z,28.74
2018-12-16T05:57:41.092Z,28.74
2018-12-16T05:58:41.043Z,28.64
2018-12-16T05:59:40.991Z,28.83
2018-12-16T06:00:40.942Z,28.64
2018-12-16T06:01:40.893Z,28.74
2018-12-16T06:02:40.846Z,28.92
2018-12-16T06:03:40.790Z,28.74
2018-12-16T06:04:40.741Z,28.64
2018-12-16T06:05:40.693Z,28.74
2018-12-16T06:06:40.642Z,28.74
2018-12-16T06:07:40.591Z,28.83
2018-12-16T06:08:40.541Z,28.74
2018-12-16T06:09:40.492Z,28.74
2018-12-16T06:10:40.441Z,28.74
2018-12-16T06:11:40.405Z,28.45
2018-12-16T06:12:40.341Z,28.74
2018-12-16T06:13:40.290Z,28.92
2018-12-16T06:14:40.240Z,29.22
2018-12-16T06:15:40.191Z,28.74
2018-12-16T06:16:40.141Z,28.74
2018-12-16T06:17:40.094Z,28.74
2018-12-16T06:18:40.041Z,28.55
2018-12-16T06:19:39.991Z,28.64
2018-12-16T06:20:39.941Z,28.74
2018-12-16T06:21:39.890Z,28.64
2018-12-16T06:22:39.841Z,28.74
2018-12-16T06:23:39.789Z,28.74
2018-12-16T06:24:39.747Z,28.74
2018-12-16T06:25:39.691Z,28.74
2018-12-16T06:26:41.063Z,28.83
2018-12-16T06:27:39.590Z,28.74
2018-12-16T06:28:39.540Z,28.83
2018-12-16T06:29:39.490Z,28.74
2018-12-16T06:30:39.440Z,28.74
2018-12-16T06:31:39.388Z,28.74
2018-12-16T06:32:39.340Z,28.74
2018-12-16T06:33:39.290Z,28.74
2018-12-16T06:34:39.240Z,28.74
2018-12-16T06:35:39.190Z,28.83
2018-12-16T06:36:39.139Z,28.74
2018-12-16T06:37:39.092Z,28.72
2018-12-16T06:38:39.040Z,28.81
2018-12-16T06:39:38.990Z,28.81
2018-12-16T06:40:38.939Z,28.72
2018-12-16T06:41:38.888Z,28.72
2018-12-16T06:42:38.839Z,28.72
2018-12-16T06:43:38.789Z,28.83
2018-12-16T06:44:38.739Z,28.83
2018-12-16T06:45:38.688Z,28.91
2018-12-16T06:46:38.640Z,28.81
2018-12-16T06:47:38.591Z,28.72
2018-12-16T06:48:38.542Z,28.81
2018-12-16T06:49:38.488Z,28.91
2018-12-16T06:50:38.439Z,28.81
2018-12-16T06:51:38.388Z,28.83
2018-12-16T06:52:38.340Z,28.83
2018-12-16T06:53:38.291Z,28.83
2018-12-16T06:54:38.239Z,28.92
2018-12-16T06:55:43.258Z,28.83
2018-12-16T06:56:38.138Z,28.74
2018-12-16T06:57:38.088Z,28.81
2018-12-16T06:58:38.039Z,28.92
2018-12-16T06:59:37.990Z,28.35
2018-12-16T07:00:37.938Z,28.45
2018-12-16T07:01:38.204Z,28.91
2018-12-16T07:02:37.838Z,28.63
2018-12-16T07:03:37.787Z,29.01
2018-12-16T07:04:37.787Z,28.81
2018-12-16T07:05:37.686Z,28.44
2018-12-16T07:06:37.639Z,28.34
2018-12-16T07:07:37.586Z,28.72
2018-12-16T07:08:37.538Z,28.81
2018-12-16T07:09:37.488Z,28.91
2018-12-16T07:10:37.436Z,28.91
2018-12-16T07:11:37.386Z,28.91
2018-12-16T07:12:37.336Z,28.91
2018-12-16T07:13:37.287Z,28.44
2018-12-16T07:14:37.237Z,28.44
2018-12-16T07:15:37.188Z,28.44
2018-12-16T07:16:37.136Z,28.72
2018-12-16T07:17:37.086Z,29.01
2018-12-16T07:18:37.060Z,28.53
2018-12-16T07:19:37.012Z,28.34
2018-12-16T07:20:36.935Z,28.44
2018-12-16T07:21:36.884Z,28.44
2018-12-16T07:22:36.865Z,28.44
2018-12-16T07:23:36.787Z,28.45
2018-12-16T07:24:36.747Z,28.44
2018-12-16T07:25:36.685Z,28.34
2018-12-16T07:26:36.635Z,28.44
2018-12-16T07:27:36.585Z,28.53
2018-12-16T07:28:36.552Z,28.44
2018-12-16T07:29:36.485Z,28.44
2018-12-16T07:30:36.451Z,28.53
2018-12-16T07:31:36.384Z,28.63
2018-12-16T07:32:36.334Z,28.53
2018-12-16T07:33:36.285Z,28.53
2018-12-16T07:34:36.235Z,28.53
2018-12-16T07:35:36.191Z,28.53
2018-12-16T07:36:36.136Z,28.63
2018-12-16T07:37:36.084Z,28.53
2018-12-16T07:38:36.044Z,28.53
2018-12-16T07:39:36.005Z,28.44
2018-12-16T07:40:35.947Z,28.63
2018-12-16T07:41:35.937Z,28.63
2018-12-16T07:42:35.850Z,28.44
2018-12-16T07:43:35.786Z,28.72
2018-12-16T07:44:35.732Z,28.53
2018-12-16T07:45:35.691Z,28.63
2018-12-16T07:46:35.632Z,28.53
2018-12-16T07:47:35.583Z,28.34
2018-12-16T07:48:35.558Z,28.63
2018-12-16T07:49:35.482Z,28.63
2018-12-16T07:50:35.432Z,28.63
2018-12-16T07:51:35.380Z,28.63
2018-12-16T07:52:35.338Z,28.53
2018-12-16T07:53:35.306Z,28.53
2018-12-16T07:54:35.233Z,28.53
2018-12-16T07:55:35.188Z,28.53
2018-12-16T07:56:35.163Z,28.72
2018-12-16T07:57:35.116Z,28.63
2018-12-16T07:58:35.032Z,28.63
2018-12-16T07:59:34.980Z,28.53
2018-12-16T08:00:34.932Z,28.63
2018-12-16T08:01:34.881Z,28.44
2018-12-16T08:02:34.836Z,28.44
2018-12-16T08:03:34.779Z,28.53
2018-12-16T08:04:34.729Z,28.44
2018-12-16T08:05:34.687Z,28.53
2018-12-16T08:06:34.649Z,28.53
2018-12-16T08:07:34.580Z,28.63
2018-12-16T08:08:34.530Z,28.72
2018-12-16T08:09:34.481Z,28.44
2018-12-16T08:10:34.431Z,28.63
2018-12-16T08:11:34.380Z,28.63
2018-12-16T08:12:34.329Z,28.53
2018-12-16T08:13:34.280Z,28.34
2018-12-16T08:14:34.228Z,28.44
2018-12-16T08:15:34.179Z,28.34
2018-12-16T08:16:34.136Z,28.63
2018-12-16T08:17:34.078Z,28.53
2018-12-16T08:18:34.033Z,28.53
2018-12-16T08:19:33.980Z,28.72
2018-12-16T08:20:33.929Z,28.44
2018-12-16T08:21:33.879Z,28.44
2018-12-16T08:22:33.829Z,28.44
2018-12-16T08:23:35.452Z,28.34
2018-12-16T08:24:33.728Z,28.44
2018-12-16T08:25:33.728Z,28.34
2018-12-16T08:26:33.629Z,28.44
2018-12-16T08:27:33.579Z,28.44
2018-12-16T08:28:33.529Z,28.44
2018-12-16T08:29:33.483Z,28.34
2018-12-16T08:30:33.428Z,28.44
2018-12-16T08:31:33.378Z,28.35
2018-12-16T08:32:33.326Z,28.34
2018-12-16T08:33:33.277Z,28.15
2018-12-16T08:34:33.227Z,28.16
2018-12-16T08:35:33.177Z,28.24
2018-12-16T08:36:33.127Z,28.34
2018-12-16T08:37:33.076Z,28.24
2018-12-16T08:38:33.027Z,28.53
2018-12-16T08:39:32.976Z,28.44
2018-12-16T08:40:32.927Z,28.44
2018-12-16T08:41:32.878Z,28.63
2018-12-16T08:42:32.827Z,28.53
2018-12-16T08:43:32.779Z,28.44
2018-12-16T08:44:32.727Z,28.44
2018-12-16T08:45:32.678Z,28.34
2018-12-16T08:46:32.629Z,28.44
2018-12-16T08:47:33.240Z,28.24
2018-12-16T08:48:32.526Z,28.24
2018-12-16T08:49:32.476Z,28.24
2018-12-16T08:50:32.431Z,28.24
2018-12-16T08:51:32.376Z,28.24
2018-12-16T08:52:32.326Z,28.24
2018-12-16T08:53:32.334Z,28.15
2018-12-16T08:54:32.226Z,27.95
2018-12-16T08:55:32.175Z,28.15
2018-12-16T08:56:32.126Z,27.86
2018-12-16T08:57:32.076Z,28.05
2018-12-16T08:58:32.026Z,28.05
2018-12-16T08:59:31.976Z,27.86
2018-12-16T09:00:31.926Z,27.95
2018-12-16T09:01:31.876Z,27.95
2018-12-16T09:02:31.830Z,28.15
2018-12-16T09:03:31.776Z,28.05
2018-12-16T09:04:31.727Z,27.86
2018-12-16T09:05:31.678Z,27.86
2018-12-16T09:06:31.628Z,28.05
2018-12-16T09:07:37.309Z,27.58
2018-12-16T09:08:31.526Z,27.38
2018-12-16T09:09:31.477Z,27.58
2018-12-16T09:10:34.342Z,27.09
2018-12-16T09:11:31.375Z,27.19
2018-12-16T09:12:31.325Z,27.38
2018-12-16T09:13:31.275Z,27.86
2018-12-16T09:14:31.225Z,27.86
2018-12-16T09:15:31.174Z,27.95
2018-12-16T09:16:31.125Z,27.95
2018-12-16T09:17:31.075Z,27.95
2018-12-16T09:18:31.025Z,27.67
2018-12-16T09:19:30.974Z,27.28
2018-12-16T09:20:30.924Z,27.38
2018-12-16T09:21:30.878Z,27.58
2018-12-16T09:22:32.215Z,27.38
2018-12-16T09:23:30.774Z,27.58
2018-12-16T09:24:36.998Z,27.58
2018-12-16T09:25:30.674Z,27.48
2018-12-16T09:26:30.623Z,27.48
2018-12-16T09:27:30.573Z,27.38
2018-12-16T09:28:30.523Z,27.48
2018-12-16T09:29:30.473Z,27.48
2018-12-16T09:30:30.424Z,27.48
2018-12-16T09:31:30.373Z,27.28
2018-12-16T09:32:30.323Z,27.28
2018-12-16T09:33:30.273Z,27.19
2018-12-16T09:34:30.223Z,27.38
2018-12-16T09:35:30.171Z,27.28
2018-12-16T09:36:30.124Z,27.38
2018-12-16T09:37:30.173Z,27.49
2018-12-16T09:38:30.023Z,27.58
2018-12-16T09:39:29.972Z,27.09
2018-12-16T09:40:29.923Z,27.00
2018-12-16T09:41:29.874Z,27.58
2018-12-16T09:42:29.823Z,27.58
2018-12-16T09:43:29.771Z,27.38
2018-12-16T09:44:29.723Z,27.48
2018-12-16T09:45:29.675Z,27.38
2018-12-16T09:46:30.124Z,27.48
2018-12-16T09:47:29.573Z,27.48
2018-12-16T09:48:29.523Z,27.48
2018-12-16T09:49:29.473Z,27.58
2018-12-16T09:50:29.423Z,27.38
2018-12-16T09:51:29.372Z,27.38
2018-12-16T09:52:29.322Z,27.38
2018-12-16T09:53:29.272Z,27.09
2018-12-16T09:54:29.223Z,27.38
2018-12-16T09:55:29.175Z,27.28
2018-12-16T09:56:29.122Z,27.48
2018-12-16T09:57:29.072Z,27.28
2018-12-16T09:58:29.023Z,27.19
2018-12-16T09:59:28.973Z,27.28
2018-12-16T10:00:28.926Z,27.38
2018-12-16T10:01:28.871Z,26.81
2018-12-16T10:02:28.822Z,26.90
2018-12-16T10:03:28.779Z,27.00
2018-12-16T10:04:28.722Z,26.81
2018-12-16T10:05:28.672Z,26.71
2018-12-16T10:06:28.622Z,27.00
2018-12-16T10:07:28.572Z,26.90
2018-12-16T10:08:28.521Z,27.09
2018-12-16T10:09:28.472Z,27.19
2018-12-16T10:10:28.428Z,26.90
2018-12-16T10:11:28.371Z,26.81
2018-12-16T10:12:28.322Z,27.19
2018-12-16T10:13:28.278Z,27.19
2018-12-16T10:14:28.221Z,26.90
2018-12-16T10:15:29.235Z,27.00
2018-12-16T10:16:28.121Z,27.00
2018-12-16T10:17:28.070Z,27.09
2018-12-16T10:18:28.022Z,26.90
2018-12-16T10:19:27.970Z,27.09
2018-12-16T10:20:27.920Z,27.09
2018-12-16T10:21:27.871Z,26.52
2018-12-16T10:22:27.821Z,26.71
2018-12-16T10:23:27.770Z,26.81
2018-12-16T10:24:27.720Z,27.09
2018-12-16T10:25:27.669Z,27.09
2018-12-16T10:26:27.620Z,27.09
2018-12-16T10:27:27.570Z,27.19
2018-12-16T10:28:27.519Z,27.28
2018-12-16T10:29:27.471Z,27.28
2018-12-16T10:30:27.420Z,27.00
2018-12-16T10:31:27.368Z,27.00
2018-12-16T10:32:27.321Z,26.71
2018-12-16T10:33:27.269Z,27.09
2018-12-16T10:34:27.219Z,26.90
2018-12-16T10:35:27.169Z,27.19
2018-12-16T10:36:27.119Z,27.19
2018-12-16T10:37:27.071Z,27.19
2018-12-16T10:38:27.020Z,26.90
2018-12-16T10:39:26.969Z,26.90
2018-12-16T10:40:26.918Z,26.81
2018-12-16T10:41:26.869Z,27.19
2018-12-16T10:42:26.818Z,26.90
2018-12-16T10:43:26.768Z,26.90
2018-12-16T10:44:26.718Z,27.09
2018-12-16T10:45:26.668Z,26.52
2018-12-16T10:46:26.618Z,26.71
2018-12-16T10:47:26.567Z,26.62
2018-12-16T10:48:26.569Z,26.81
2018-12-16T10:49:26.468Z,26.81
2018-12-16T10:50:26.418Z,26.71
2018-12-16T10:51:26.367Z,26.71
2018-12-16T10:52:26.317Z,26.81
2018-12-16T10:53:26.267Z,27.09
2018-12-16T10:54:26.217Z,26.81
2018-12-16T10:55:26.166Z,27.09
2018-12-16T10:56:26.117Z,27.28
2018-12-16T10:57:26.067Z,27.00
2018-12-16T10:58:26.017Z,27.00
2018-12-16T10:59:25.966Z,27.09
2018-12-16T11:00:25.917Z,27.09
2018-12-16T11:01:25.867Z,26.71
2018-12-16T11:02:25.817Z,26.52
2018-12-16T11:03:25.766Z,26.42
2018-12-16T11:04:25.716Z,26.23
2018-12-16T11:05:25.667Z,26.42
2018-12-16T11:06:25.616Z,26.52
2018-12-16T11:07:25.570Z,26.52
2018-12-16T11:08:25.516Z,26.23
2018-12-16T11:09:25.466Z,26.42
2018-12-16T11:10:25.417Z,26.14
2018-12-16T11:11:25.365Z,26.42
2018-12-16T11:12:25.315Z,26.71
2018-12-16T11:13:25.266Z,26.52
2018-12-16T11:14:25.216Z,26.52
2018-12-16T11:15:25.165Z,26.81
2018-12-16T11:16:25.114Z,26.52
2018-12-16T11:17:25.065Z,26.52
2018-12-16T11:18:25.015Z,26.81
2018-12-16T11:19:24.965Z,26.52
2018-12-16T11:20:24.915Z,26.62
2018-12-16T11:21:24.865Z,26.71
2018-12-16T11:22:24.815Z,26.71
2018-12-16T11:23:24.763Z,26.71
2018-12-16T11:24:24.715Z,26.71
2018-12-16T11:25:24.664Z,26.71
2018-12-16T11:26:24.613Z,26.71
2018-12-16T11:27:24.564Z,26.71
2018-12-16T11:28:24.515Z,26.62
2018-12-16T11:29:24.463Z,26.71
2018-12-16T11:30:24.414Z,26.81
2018-12-16T11:31:24.364Z,26.71
2018-12-16T11:32:24.315Z,26.71
2018-12-16T11:33:24.264Z,26.62
2018-12-16T11:34:24.214Z,26.52
2018-12-16T11:35:24.213Z,26.90
2018-12-16T11:36:24.114Z,26.71
2018-12-16T11:37:24.071Z,26.33
2018-12-16T11:38:24.014Z,26.23
2018-12-16T11:39:23.963Z,26.42
2018-12-16T11:40:23.912Z,26.52
2018-12-16T11:41:23.863Z,26.52
2018-12-16T11:42:23.813Z,26.52
2018-12-16T11:43:23.761Z,26.81
2018-12-16T11:44:23.714Z,26.62
2018-12-16T11:45:23.663Z,26.71
2018-12-16T11:46:23.614Z,26.71
2018-12-16T11:47:23.562Z,26.62
2018-12-16T11:48:23.514Z,26.62
2018-12-16T11:49:23.461Z,26.90
2018-12-16T11:50:23.514Z,26.81
2018-12-16T11:51:23.362Z,26.62
2018-12-16T11:52:24.998Z,26.71
2018-12-16T11:53:23.262Z,26.42
2018-12-16T11:54:23.215Z,26.62
2018-12-16T11:55:23.163Z,26.42
2018-12-16T11:56:23.118Z,26.62
2018-12-16T11:57:23.062Z,26.62
2018-12-16T11:58:23.012Z,26.62
2018-12-16T11:59:22.962Z,26.42
2018-12-16T12:00:22.912Z,26.52
2018-12-16T12:01:22.864Z,26.52
2018-12-16T12:02:22.811Z,26.42
2018-12-16T12:03:22.760Z,26.04
2018-12-16T12:04:22.712Z,25.85
2018-12-16T12:05:22.661Z,26.71
2018-12-16T12:06:22.612Z,26.71
2018-12-16T12:07:22.561Z,26.04
2018-12-16T12:08:22.512Z,26.04
2018-12-16T12:09:22.466Z,26.33
2018-12-16T12:10:22.412Z,26.52
2018-12-16T12:11:22.366Z,26.33
2018-12-16T12:12:22.312Z,26.33
2018-12-16T12:13:22.262Z,26.23
2018-12-16T12:14:22.261Z,25.95
2018-12-16T12:15:22.161Z,25.85
2018-12-16T12:16:22.111Z,26.43
2018-12-16T12:17:22.061Z,26.53
2018-12-16T12:18:22.012Z,26.04
2018-12-16T12:19:21.962Z,25.95
2018-12-16T12:20:21.912Z,26.23
2018-12-16T12:21:21.863Z,26.04
2018-12-16T12:22:21.814Z,26.14
2018-12-16T12:23:21.760Z,26.23
2018-12-16T12:24:21.712Z,26.42
2018-12-16T12:25:21.662Z,26.33
2018-12-16T12:26:21.612Z,26.04
2018-12-16T12:27:21.562Z,25.95
2018-12-16T12:28:21.512Z,26.06
2018-12-16T12:29:21.461Z,25.95
2018-12-16T12:30:21.414Z,25.75
2018-12-16T12:31:21.361Z,25.95
2018-12-16T12:32:21.312Z,26.04
2018-12-16T12:33:21.263Z,25.95
2018-12-16T12:34:21.213Z,26.04
2018-12-16T12:35:21.162Z,26.42
2018-12-16T12:36:21.111Z,26.33
2018-12-16T12:37:21.065Z,26.14
2018-12-16T12:38:21.012Z,25.85
2018-12-16T12:39:20.960Z,26.04
2018-12-16T12:40:20.913Z,25.66
2018-12-16T12:41:20.862Z,26.04
2018-12-16T12:42:20.814Z,25.95
2018-12-16T12:43:20.762Z,26.04
2018-12-16T12:44:20.714Z,26.42
2018-12-16T12:45:20.662Z,26.33
2018-12-16T12:46:20.612Z,26.42
2018-12-16T12:47:20.591Z,26.14
2018-12-16T12:48:20.512Z,26.14
2018-12-16T12:49:20.462Z,25.95
2018-12-16T12:50:20.411Z,25.85
2018-12-16T12:51:20.363Z,26.14
2018-12-16T12:52:20.314Z,25.85